sensor_id;sensor_type;location;lat;lon;timestamp;pressure;altitude;pressure_sealevel;temperature;humidity
23427;BME280;41148;45.420;10.952;2023-03-11T00:00:35;98850.13;;;12.61;46.05
23427;BME280;41148;45.420;10.952;2023-03-11T00:03:04;98854.41;;;12.64;46.18
23427;BME280;41148;45.420;10.952;2023-03-11T00:05:35;98838.03;;;12.55;46.07
23427;BME280;41148;45.420;10.952;2023-03-11T00:08:04;98854.41;;;12.64;46.31
23427;BME280;41148;45.420;10.952;2023-03-11T00:10:35;98857.06;;;12.64;46.61
23427;BME280;41148;45.420;10.952;2023-03-11T00:13:04;98857.06;;;12.64;46.71
23427;BME280;41148;45.420;10.952;2023-03-11T00:15:33;98862.72;;;12.59;46.79
23427;BME280;41148;45.420;10.952;2023-03-11T00:18:00;98856.56;;;12.44;46.48
23427;BME280;41148;45.420;10.952;2023-03-11T00:20:30;98837.59;;;12.35;46.53
23427;BME280;41148;45.420;10.952;2023-03-11T00:22:58;98843.41;;;12.41;46.12
23427;BME280;41148;45.420;10.952;2023-03-11T00:25:29;98844.63;;;12.50;46.23
23427;BME280;41148;45.420;10.952;2023-03-11T00:27:57;98840.63;;;12.43;45.96
23427;BME280;41148;45.420;10.952;2023-03-11T00:30:26;98842.94;;;12.35;46.39
23427;BME280;41148;45.420;10.952;2023-03-11T00:32:56;98842.81;;;12.50;46.08
23427;BME280;41148;45.420;10.952;2023-03-11T00:35:27;98849.22;;;12.48;45.91
23427;BME280;41148;45.420;10.952;2023-03-11T00:37:57;98843.84;;;12.21;46.50
23427;BME280;41148;45.420;10.952;2023-03-11T00:40:28;98844.78;;;12.20;46.73
23427;BME280;41148;45.420;10.952;2023-03-11T00:42:57;98832.13;;;12.09;47.09
23427;BME280;41148;45.420;10.952;2023-03-11T00:45:26;98845.84;;;12.17;46.74
23427;BME280;41148;45.420;10.952;2023-03-11T00:47:55;98821.03;;;12.15;46.31
23427;BME280;41148;45.420;10.952;2023-03-11T00:50:26;98845.34;;;12.25;46.43
23427;BME280;41148;45.420;10.952;2023-03-11T00:52:55;98844.53;;;12.10;46.62
23427;BME280;41148;45.420;10.952;2023-03-11T00:55:27;98817.25;;;12.05;47.25
23427;BME280;41148;45.420;10.952;2023-03-11T00:57:59;98824.41;;;12.19;46.87
23427;BME280;41148;45.420;10.952;2023-03-11T01:00:33;98832.50;;;12.17;46.77
23427;BME280;41148;45.420;10.952;2023-03-11T01:03:02;98818.78;;;12.09;46.80
23427;BME280;41148;45.420;10.952;2023-03-11T01:05:31;98826.47;;;12.14;46.72
23427;BME280;41148;45.420;10.952;2023-03-11T01:08:01;98827.66;;;12.10;47.07
23427;BME280;41148;45.420;10.952;2023-03-11T01:10:31;98812.69;;;12.07;46.48
23427;BME280;41148;45.420;10.952;2023-03-11T01:12:59;98789.44;;;11.95;46.44
23427;BME280;41148;45.420;10.952;2023-03-11T01:15:32;98813.28;;;11.98;46.77
23427;BME280;41148;45.420;10.952;2023-03-11T01:18:01;98787.06;;;11.90;46.73
23427;BME280;41148;45.420;10.952;2023-03-11T01:20:31;98807.47;;;11.91;46.48
23427;BME280;41148;45.420;10.952;2023-03-11T01:22:59;98812.41;;;11.97;46.54
23427;BME280;41148;45.420;10.952;2023-03-11T01:25:27;98806.13;;;11.98;46.60
23427;BME280;41148;45.420;10.952;2023-03-11T01:27:57;98799.25;;;12.09;46.50
23427;BME280;41148;45.420;10.952;2023-03-11T01:30:26;98784.69;;;12.00;46.46
23427;BME280;41148;45.420;10.952;2023-03-11T01:32:55;98779.72;;;11.94;46.89
23427;BME280;41148;45.420;10.952;2023-03-11T01:35:25;98780.13;;;11.88;47.02
23427;BME280;41148;45.420;10.952;2023-03-11T01:37:53;98777.72;;;11.83;47.24
23427;BME280;41148;45.420;10.952;2023-03-11T01:40:34;98772.50;;;11.82;47.07
23427;BME280;41148;45.420;10.952;2023-03-11T01:49:21;98749.03;;;11.72;47.88
23427;BME280;41148;45.420;10.952;2023-03-11T01:51:51;98748.19;;;11.72;47.54
23427;BME280;41148;45.420;10.952;2023-03-11T01:54:23;98770.28;;;11.74;47.61
23427;BME280;41148;45.420;10.952;2023-03-11T01:56:52;98766.19;;;11.54;48.08
23427;BME280;41148;45.420;10.952;2023-03-11T01:59:23;98760.50;;;11.60;48.23
23427;BME280;41148;45.420;10.952;2023-03-11T02:01:58;98764.00;;;11.61;48.09
23427;BME280;41148;45.420;10.952;2023-03-11T02:04:28;98753.44;;;11.59;48.44
23427;BME280;41148;45.420;10.952;2023-03-11T02:06:56;98751.25;;;11.52;48.70
23427;BME280;41148;45.420;10.952;2023-03-11T02:09:23;98756.66;;;11.36;48.83
23427;BME280;41148;45.420;10.952;2023-03-11T02:11:53;98750.47;;;11.21;49.86
23427;BME280;41148;45.420;10.952;2023-03-11T02:14:22;98744.00;;;11.25;50.54
23427;BME280;41148;45.420;10.952;2023-03-11T02:16:52;98733.25;;;11.12;51.05
23427;BME280;41148;45.420;10.952;2023-03-11T02:22:17;98711.50;;;10.90;52.79
23427;BME280;41148;45.420;10.952;2023-03-11T02:27:35;98722.09;;;10.92;52.81
23427;BME280;41148;45.420;10.952;2023-03-11T02:30:07;98732.91;;;10.88;53.59
23427;BME280;41148;45.420;10.952;2023-03-11T02:32:37;98735.88;;;10.98;53.78
23427;BME280;41148;45.420;10.952;2023-03-11T02:35:05;98730.72;;;10.81;53.96
23427;BME280;41148;45.420;10.952;2023-03-11T02:37:33;98756.22;;;10.85;54.09
23427;BME280;41148;45.420;10.952;2023-03-11T02:43:10;98725.44;;;10.65;54.52
23427;BME280;41148;45.420;10.952;2023-03-11T02:45:45;98730.19;;;10.60;54.42
23427;BME280;41148;45.420;10.952;2023-03-11T02:48:13;98728.13;;;10.65;54.29
23427;BME280;41148;45.420;10.952;2023-03-11T02:50:41;98726.81;;;10.72;54.09
23427;BME280;41148;45.420;10.952;2023-03-11T02:53:10;98721.00;;;10.50;54.63
23427;BME280;41148;45.420;10.952;2023-03-11T02:55:37;98725.38;;;10.51;54.29
23427;BME280;41148;45.420;10.952;2023-03-11T02:58:06;98722.13;;;10.62;54.35
23427;BME280;41148;45.420;10.952;2023-03-11T03:00:33;98731.22;;;10.57;54.23
23427;BME280;41148;45.420;10.952;2023-03-11T03:03:04;98710.69;;;10.59;53.84
23427;BME280;41148;45.420;10.952;2023-03-11T03:05:32;98704.59;;;10.57;53.66
23427;BME280;41148;45.420;10.952;2023-03-11T03:08:00;98727.44;;;10.62;53.33
23427;BME280;41148;45.420;10.952;2023-03-11T03:10:29;98725.31;;;10.52;53.08
23427;BME280;41148;45.420;10.952;2023-03-11T03:12:57;98715.59;;;10.51;53.15
23427;BME280;41148;45.420;10.952;2023-03-11T03:15:25;98722.56;;;10.54;52.85
23427;BME280;41148;45.420;10.952;2023-03-11T03:17:52;98724.69;;;10.63;52.31
23427;BME280;41148;45.420;10.952;2023-03-11T03:20:20;98723.66;;;10.66;52.30
23427;BME280;41148;45.420;10.952;2023-03-11T03:22:52;98723.75;;;10.64;52.59
23427;BME280;41148;45.420;10.952;2023-03-11T03:25:24;98722.56;;;10.54;52.63
23427;BME280;41148;45.420;10.952;2023-03-11T03:27:52;98745.03;;;10.64;52.76
23427;BME280;41148;45.420;10.952;2023-03-11T03:30:20;98740.75;;;10.62;52.67
23427;BME280;41148;45.420;10.952;2023-03-11T03:32:48;98751.94;;;10.52;52.84
23427;BME280;41148;45.420;10.952;2023-03-11T03:35:17;98751.56;;;10.58;52.87
23427;BME280;41148;45.420;10.952;2023-03-11T03:37:55;98728.63;;;10.72;52.89
23427;BME280;41148;45.420;10.952;2023-03-11T03:40:23;98713.00;;;10.66;52.70
23427;BME280;41148;45.420;10.952;2023-03-11T03:42:52;98721.84;;;10.66;53.03
23427;BME280;41148;45.420;10.952;2023-03-11T03:45:20;98710.13;;;10.69;53.13
23427;BME280;41148;45.420;10.952;2023-03-11T03:47:50;98696.50;;;10.59;53.34
23427;BME280;41148;45.420;10.952;2023-03-11T03:50:20;98709.88;;;10.73;53.82
23427;BME280;41148;45.420;10.952;2023-03-11T03:52:49;98730.59;;;10.68;53.62
23427;BME280;41148;45.420;10.952;2023-03-11T03:55:18;98721.81;;;10.52;53.80
23427;BME280;41148;45.420;10.952;2023-03-11T03:57:45;98711.50;;;10.46;53.81
23427;BME280;41148;45.420;10.952;2023-03-11T04:00:14;98715.44;;;10.54;53.92
23427;BME280;41148;45.420;10.952;2023-03-11T04:02:45;98720.88;;;10.67;53.84
23427;BME280;41148;45.420;10.952;2023-03-11T04:05:21;98732.03;;;10.74;53.40
23427;BME280;41148;45.420;10.952;2023-03-11T04:07:48;98731.00;;;10.76;53.03
23427;BME280;41148;45.420;10.952;2023-03-11T04:10:16;98728.63;;;10.72;53.04
23427;BME280;41148;45.420;10.952;2023-03-11T04:12:44;98731.66;;;10.80;53.17
23427;BME280;41148;45.420;10.952;2023-03-11T04:15:12;98751.78;;;10.70;53.15
23427;BME280;41148;45.420;10.952;2023-03-11T04:17:42;98754.00;;;10.47;53.86
23427;BME280;41148;45.420;10.952;2023-03-11T04:20:10;98754.44;;;10.40;53.93
23427;BME280;41148;45.420;10.952;2023-03-11T04:22:38;98769.00;;;10.64;53.47
23427;BME280;41148;45.420;10.952;2023-03-11T04:25:07;98765.81;;;10.73;53.17
23427;BME280;41148;45.420;10.952;2023-03-11T04:27:34;98776.38;;;10.75;53.33
23427;BME280;41148;45.420;10.952;2023-03-11T04:30:04;98772.94;;;10.73;53.40
23427;BME280;41148;45.420;10.952;2023-03-11T04:32:32;98784.06;;;10.79;53.72
23427;BME280;41148;45.420;10.952;2023-03-11T04:35:00;98782.34;;;10.78;53.58
23427;BME280;41148;45.420;10.952;2023-03-11T04:37:28;98789.34;;;10.81;53.53
23427;BME280;41148;45.420;10.952;2023-03-11T04:39:56;98789.34;;;10.81;53.62
23427;BME280;41148;45.420;10.952;2023-03-11T04:42:24;98788.44;;;10.80;54.05
23427;BME280;41148;45.420;10.952;2023-03-11T04:44:52;98794.34;;;10.71;54.39
23427;BME280;41148;45.420;10.952;2023-03-11T04:47:20;98794.06;;;10.76;54.53
23427;BME280;41148;45.420;10.952;2023-03-11T04:49:48;98816.03;;;10.79;54.75
23427;BME280;41148;45.420;10.952;2023-03-11T04:52:16;98815.56;;;10.73;55.04
23427;BME280;41148;45.420;10.952;2023-03-11T04:54:43;98811.09;;;10.73;55.25
23427;BME280;41148;45.420;10.952;2023-03-11T04:57:11;98804.63;;;10.77;55.28
23427;BME280;41148;45.420;10.952;2023-03-11T04:59:41;98790.53;;;10.75;55.53
23427;BME280;41148;45.420;10.952;2023-03-11T05:02:10;98771.69;;;10.78;55.42
23427;BME280;41148;45.420;10.952;2023-03-11T05:04:44;98762.28;;;10.73;55.36
23427;BME280;41148;45.420;10.952;2023-03-11T05:07:14;98756.56;;;10.79;55.43
23427;BME280;41148;45.420;10.952;2023-03-11T05:09:42;98763.41;;;10.69;55.73
23427;BME280;41148;45.420;10.952;2023-03-11T05:12:11;98756.00;;;10.74;55.49
23427;BME280;41148;45.420;10.952;2023-03-11T05:14:40;98753.13;;;10.63;56.12
23427;BME280;41148;45.420;10.952;2023-03-11T05:17:07;98755.41;;;10.69;55.87
23427;BME280;41148;45.420;10.952;2023-03-11T05:19:36;98754.41;;;10.71;55.90
23427;BME280;41148;45.420;10.952;2023-03-11T05:22:12;98752.75;;;10.69;55.82
23427;BME280;41148;45.420;10.952;2023-03-11T05:24:40;98757.06;;;10.71;55.33
23427;BME280;41148;45.420;10.952;2023-03-11T05:27:08;98770.53;;;10.68;55.49
23427;BME280;41148;45.420;10.952;2023-03-11T05:29:37;98764.84;;;10.74;54.70
23427;BME280;41148;45.420;10.952;2023-03-11T05:32:07;98773.59;;;10.76;54.53
23427;BME280;41148;45.420;10.952;2023-03-11T05:34:34;98782.00;;;10.54;55.37
23427;BME280;41148;45.420;10.952;2023-03-11T05:37:02;98765.66;;;10.60;55.44
23427;BME280;41148;45.420;10.952;2023-03-11T05:39:31;98779.38;;;10.69;55.18
23427;BME280;41148;45.420;10.952;2023-03-11T05:41:58;98797.66;;;10.75;54.97
23427;BME280;41148;45.420;10.952;2023-03-11T05:44:26;98817.66;;;10.52;55.95
23427;BME280;41148;45.420;10.952;2023-03-11T05:46:55;98828.03;;;10.41;56.98
23427;BME280;41148;45.420;10.952;2023-03-11T05:49:23;98810.00;;;10.30;56.96
23427;BME280;41148;45.420;10.952;2023-03-11T05:51:52;98808.31;;;10.29;57.12
23427;BME280;41148;45.420;10.952;2023-03-11T05:54:24;98808.13;;;10.32;57.34
23427;BME280;41148;45.420;10.952;2023-03-11T05:56:52;98811.13;;;10.42;57.26
23427;BME280;41148;45.420;10.952;2023-03-11T05:59:19;98791.09;;;10.50;57.78
23427;BME280;41148;45.420;10.952;2023-03-11T06:01:53;98814.25;;;10.34;58.15
23427;BME280;41148;45.420;10.952;2023-03-11T06:04:22;98817.38;;;10.41;58.46
23427;BME280;41148;45.420;10.952;2023-03-11T06:06:50;98830.69;;;10.41;58.26
23427;BME280;41148;45.420;10.952;2023-03-11T06:09:20;98840.34;;;10.43;59.11
23427;BME280;41148;45.420;10.952;2023-03-11T06:11:48;98825.56;;;10.38;59.50
23427;BME280;41148;45.420;10.952;2023-03-11T06:14:17;98814.72;;;10.41;59.69
23427;BME280;41148;45.420;10.952;2023-03-11T06:16:48;98794.66;;;10.35;59.71
23427;BME280;41148;45.420;10.952;2023-03-11T06:19:17;98788.91;;;10.43;59.44
23427;BME280;41148;45.420;10.952;2023-03-11T06:21:47;98783.28;;;10.47;58.99
23427;BME280;41148;45.420;10.952;2023-03-11T06:24:17;98787.31;;;10.54;58.38
23427;BME280;41148;45.420;10.952;2023-03-11T06:26:45;98789.63;;;10.60;58.29
23427;BME280;41148;45.420;10.952;2023-03-11T06:29:15;98789.38;;;10.65;57.31
23427;BME280;41148;45.420;10.952;2023-03-11T06:31:43;98805.91;;;10.70;57.20
23427;BME280;41148;45.420;10.952;2023-03-11T06:34:12;98822.69;;;10.72;58.58
23427;BME280;41148;45.420;10.952;2023-03-11T06:36:39;98803.78;;;10.61;58.37
23427;BME280;41148;45.420;10.952;2023-03-11T06:39:07;98807.41;;;10.60;58.21
23427;BME280;41148;45.420;10.952;2023-03-11T06:41:36;98819.22;;;10.70;57.64
23427;BME280;41148;45.420;10.952;2023-03-11T06:44:05;98833.06;;;10.77;57.68
23427;BME280;41148;45.420;10.952;2023-03-11T06:46:35;98820.09;;;11.45;55.80
23427;BME280;41148;45.420;10.952;2023-03-11T06:49:04;98806.88;;;11.86;54.59
23427;BME280;41148;45.420;10.952;2023-03-11T06:51:32;98820.44;;;12.39;53.68
23427;BME280;41148;45.420;10.952;2023-03-11T06:53:59;98817.56;;;13.61;49.06
23427;BME280;41148;45.420;10.952;2023-03-11T06:56:27;98823.69;;;14.62;46.80
23427;BME280;41148;45.420;10.952;2023-03-11T06:59:01;98834.50;;;14.84;46.29
23427;BME280;41148;45.420;10.952;2023-03-11T07:01:31;98840.09;;;15.51;44.50
23427;BME280;41148;45.420;10.952;2023-03-11T07:04:01;98839.59;;;15.35;43.60
23427;BME280;41148;45.420;10.952;2023-03-11T07:06:29;98834.19;;;16.26;42.61
23427;BME280;41148;45.420;10.952;2023-03-11T07:09:02;98857.94;;;15.17;43.85
23427;BME280;41148;45.420;10.952;2023-03-11T07:11:32;98840.84;;;14.10;47.00
23427;BME280;41148;45.420;10.952;2023-03-11T07:14:06;98859.28;;;13.63;48.25
23427;BME280;41148;45.420;10.952;2023-03-11T07:16:37;98848.97;;;14.08;47.33
23427;BME280;41148;45.420;10.952;2023-03-11T07:19:11;98862.84;;;15.34;44.83
23427;BME280;41148;45.420;10.952;2023-03-11T07:21:39;98865.00;;;16.99;41.06
23427;BME280;41148;45.420;10.952;2023-03-11T07:24:06;98857.94;;;16.86;40.41
23427;BME280;41148;45.420;10.952;2023-03-11T07:26:34;98862.75;;;17.04;40.33
23427;BME280;41148;45.420;10.952;2023-03-11T07:29:02;98853.78;;;17.67;39.28
23427;BME280;41148;45.420;10.952;2023-03-11T07:31:32;98855.56;;;18.89;36.65
23427;BME280;41148;45.420;10.952;2023-03-11T07:34:02;98857.16;;;19.21;35.87
23427;BME280;41148;45.420;10.952;2023-03-11T07:36:30;98863.78;;;18.87;36.53
23427;BME280;41148;45.420;10.952;2023-03-11T07:39:00;98859.69;;;18.83;36.42
23427;BME280;41148;45.420;10.952;2023-03-11T07:41:32;98871.00;;;17.76;37.90
23427;BME280;41148;45.420;10.952;2023-03-11T07:44:00;98867.38;;;16.81;40.14
23427;BME280;41148;45.420;10.952;2023-03-11T07:46:29;98875.09;;;15.50;42.28
23427;BME280;41148;45.420;10.952;2023-03-11T07:48:57;98864.00;;;15.08;43.82
23427;BME280;41148;45.420;10.952;2023-03-11T07:51:28;98868.94;;;14.53;45.23
23427;BME280;41148;45.420;10.952;2023-03-11T07:53:57;98873.50;;;14.15;46.50
23427;BME280;41148;45.420;10.952;2023-03-11T07:56:27;98884.34;;;13.75;47.84
23427;BME280;41148;45.420;10.952;2023-03-11T07:59:00;98896.53;;;13.66;47.70
23427;BME280;41148;45.420;10.952;2023-03-11T08:01:30;98889.84;;;13.34;48.56
23427;BME280;41148;45.420;10.952;2023-03-11T08:04:04;98891.22;;;13.27;48.95
23427;BME280;41148;45.420;10.952;2023-03-11T08:06:33;98889.84;;;13.34;49.08
23427;BME280;41148;45.420;10.952;2023-03-11T08:09:05;98881.84;;;13.46;48.86
23427;BME280;41148;45.420;10.952;2023-03-11T08:11:34;98883.16;;;13.54;49.30
23427;BME280;41148;45.420;10.952;2023-03-11T08:14:02;98894.91;;;13.51;49.89
23427;BME280;41148;45.420;10.952;2023-03-11T08:16:30;98920.78;;;13.38;49.79
23427;BME280;41148;45.420;10.952;2023-03-11T08:18:58;98932.03;;;13.56;49.64
23427;BME280;41148;45.420;10.952;2023-03-11T08:21:27;98939.63;;;13.49;49.49
23427;BME280;41148;45.420;10.952;2023-03-11T08:23:57;98940.56;;;13.35;50.16
23427;BME280;41148;45.420;10.952;2023-03-11T08:26:25;98950.19;;;13.38;50.39
23427;BME280;41148;45.420;10.952;2023-03-11T08:28:53;98944.22;;;13.47;50.16
23427;BME280;41148;45.420;10.952;2023-03-11T08:31:24;98903.25;;;13.59;51.57
23427;BME280;41148;45.420;10.952;2023-03-11T08:33:59;98860.84;;;13.28;53.09
23427;BME280;41148;45.420;10.952;2023-03-11T08:36:27;98915.63;;;13.22;54.34
23427;BME280;41148;45.420;10.952;2023-03-11T08:38:55;98918.00;;;13.12;55.48
23427;BME280;41148;45.420;10.952;2023-03-11T08:41:22;98908.75;;;13.31;55.93
23427;BME280;41148;45.420;10.952;2023-03-11T08:43:50;98901.75;;;13.15;56.51
23427;BME280;41148;45.420;10.952;2023-03-11T08:46:23;98916.78;;;13.31;56.84
23427;BME280;41148;45.420;10.952;2023-03-11T08:48:52;98908.97;;;13.28;57.49
23427;BME280;41148;45.420;10.952;2023-03-11T08:51:20;98903.22;;;13.34;57.87
23427;BME280;41148;45.420;10.952;2023-03-11T08:53:48;98914.78;;;13.34;58.23
23427;BME280;41148;45.420;10.952;2023-03-11T08:56:16;98922.44;;;13.79;57.46
23427;BME280;41148;45.420;10.952;2023-03-11T08:58:45;98918.25;;;14.25;57.53
23427;BME280;41148;45.420;10.952;2023-03-11T09:01:13;98906.88;;;14.60;56.69
23427;BME280;41148;45.420;10.952;2023-03-11T09:03:40;98911.69;;;14.68;56.47
23427;BME280;41148;45.420;10.952;2023-03-11T09:06:11;98923.72;;;15.10;55.93
23427;BME280;41148;45.420;10.952;2023-03-11T09:08:41;98913.56;;;15.02;55.67
23427;BME280;41148;45.420;10.952;2023-03-11T09:11:09;98906.84;;;15.56;55.02
23427;BME280;41148;45.420;10.952;2023-03-11T09:13:36;98899.28;;;15.96;53.92
23427;BME280;41148;45.420;10.952;2023-03-11T09:16:19;98901.25;;;16.27;53.56
23427;BME280;41148;45.420;10.952;2023-03-11T09:18:47;98917.22;;;16.85;51.63
23427;BME280;41148;45.420;10.952;2023-03-11T09:21:14;98895.16;;;16.03;53.44
23427;BME280;41148;45.420;10.952;2023-03-11T09:23:41;98893.38;;;16.92;50.49
23427;BME280;41148;45.420;10.952;2023-03-11T09:26:11;98899.03;;;16.77;50.97
23427;BME280;41148;45.420;10.952;2023-03-11T09:28:40;98897.84;;;16.25;52.51
23427;BME280;41148;45.420;10.952;2023-03-11T09:31:08;98904.91;;;16.04;53.82
23427;BME280;41148;45.420;10.952;2023-03-11T09:33:40;98906.22;;;15.98;54.64
23427;BME280;41148;45.420;10.952;2023-03-11T09:36:14;98910.59;;;15.77;56.83
23427;BME280;41148;45.420;10.952;2023-03-11T09:38:42;98912.63;;;15.62;57.48
23427;BME280;41148;45.420;10.952;2023-03-11T09:44:43;98912.56;;;15.16;60.32
23427;BME280;41148;45.420;10.952;2023-03-11T09:47:26;98923.91;;;15.20;60.72
23427;BME280;41148;45.420;10.952;2023-03-11T09:50:21;98936.13;;;15.00;61.87
23427;BME280;41148;45.420;10.952;2023-03-11T09:55:44;98943.78;;;15.17;62.05
23427;BME280;41148;45.420;10.952;2023-03-11T10:00:52;98938.53;;;15.15;61.53
23427;BME280;41148;45.420;10.952;2023-03-11T10:03:40;98938.34;;;15.06;62.07
23427;BME280;41148;45.420;10.952;2023-03-11T10:06:24;98935.09;;;15.13;62.21
23427;BME280;41148;45.420;10.952;2023-03-11T10:14:53;98947.53;;;15.38;61.76
23427;BME280;41148;45.420;10.952;2023-03-11T10:17:51;98956.41;;;15.15;63.16
23427;BME280;41148;45.420;10.952;2023-03-11T10:20:41;98967.00;;;15.29;63.38
23427;BME280;41148;45.420;10.952;2023-03-11T10:25:57;98971.88;;;15.59;61.42
23427;BME280;41148;45.420;10.952;2023-03-11T10:28:50;98976.25;;;15.73;61.01
23427;BME280;41148;45.420;10.952;2023-03-11T10:31:24;98977.31;;;15.70;60.98
23427;BME280;41148;45.420;10.952;2023-03-11T10:37:12;98978.81;;;15.74;61.51
23427;BME280;41148;45.420;10.952;2023-03-11T10:39:45;98989.59;;;15.86;61.87
23427;BME280;41148;45.420;10.952;2023-03-11T10:42:20;98982.25;;;15.77;61.46
23427;BME280;41148;45.420;10.952;2023-03-11T10:44:49;98986.06;;;15.85;61.63
23427;BME280;41148;45.420;10.952;2023-03-11T10:47:23;98991.03;;;15.79;62.03
23427;BME280;41148;45.420;10.952;2023-03-11T10:49:51;98992.00;;;15.78;61.92
23427;BME280;41148;45.420;10.952;2023-03-11T10:52:22;98996.97;;;15.71;60.99
23427;BME280;41148;45.420;10.952;2023-03-11T10:54:59;98991.06;;;15.90;60.32
23427;BME280;41148;45.420;10.952;2023-03-11T10:57:36;98988.25;;;15.91;59.20
23427;BME280;41148;45.420;10.952;2023-03-11T11:00:07;98992.19;;;15.98;59.11
23427;BME280;41148;45.420;10.952;2023-03-11T11:02:50;98989.16;;;16.03;60.63
23427;BME280;41148;45.420;10.952;2023-03-11T11:07:51;98995.66;;;16.23;61.54
23427;BME280;41148;45.420;10.952;2023-03-11T11:10:28;98990.03;;;16.26;61.58
23427;BME280;41148;45.420;10.952;2023-03-11T11:13:02;98990.19;;;16.36;60.37
23427;BME280;41148;45.420;10.952;2023-03-11T11:18:32;98998.56;;;16.09;60.97
23427;BME280;41148;45.420;10.952;2023-03-11T11:21:07;98992.97;;;16.12;60.35
23427;BME280;41148;45.420;10.952;2023-03-11T11:24:37;99000.56;;;16.40;59.63
23427;BME280;41148;45.420;10.952;2023-03-11T11:29:34;98993.44;;;16.17;60.97
23427;BME280;41148;45.420;10.952;2023-03-11T11:35:00;98993.72;;;16.36;61.27
23427;BME280;41148;45.420;10.952;2023-03-11T11:37:31;98976.63;;;16.48;60.25
23427;BME280;41148;45.420;10.952;2023-03-11T11:43:05;98956.81;;;16.38;59.60
23427;BME280;41148;45.420;10.952;2023-03-11T11:45:56;98971.88;;;16.63;58.64
23427;BME280;41148;45.420;10.952;2023-03-11T11:48:33;98978.84;;;16.54;58.70
23427;BME280;41148;45.420;10.952;2023-03-11T11:51:15;98966.13;;;16.34;59.06
23427;BME280;41148;45.420;10.952;2023-03-11T11:56:31;98962.56;;;16.34;58.29
23427;BME280;41148;45.420;10.952;2023-03-11T11:58:58;98956.94;;;16.37;57.89
23427;BME280;41148;45.420;10.952;2023-03-11T12:04:17;98955.97;;;16.38;58.62
23427;BME280;41148;45.420;10.952;2023-03-11T12:12:43;98932.03;;;16.23;58.01
23427;BME280;41148;45.420;10.952;2023-03-11T12:15:28;98942.91;;;16.22;58.45
23427;BME280;41148;45.420;10.952;2023-03-11T12:18:01;98931.06;;;16.47;56.81
23427;BME280;41148;45.420;10.952;2023-03-11T12:20:50;98937.03;;;16.62;54.60
23427;BME280;41148;45.420;10.952;2023-03-11T12:26:00;98943.16;;;16.64;57.03
23427;BME280;41148;45.420;10.952;2023-03-11T12:31:09;98924.22;;;16.54;56.22
23427;BME280;41148;45.420;10.952;2023-03-11T12:33:45;98938.38;;;16.56;56.97
23427;BME280;41148;45.420;10.952;2023-03-11T12:38:50;98936.41;;;16.47;57.30
23427;BME280;41148;45.420;10.952;2023-03-11T12:44:25;98920.41;;;16.68;56.91
23427;BME280;41148;45.420;10.952;2023-03-11T12:47:00;98922.94;;;17.03;56.22
23427;BME280;41148;45.420;10.952;2023-03-11T12:49:31;98933.84;;;16.90;55.43
23427;BME280;41148;45.420;10.952;2023-03-11T12:57:33;98917.22;;;16.85;55.60
23427;BME280;41148;45.420;10.952;2023-03-11T13:00:44;98921.22;;;17.02;54.51
23427;BME280;41148;45.420;10.952;2023-03-11T13:03:48;98922.34;;;16.99;53.32
23427;BME280;41148;45.420;10.952;2023-03-11T13:09:03;98925.66;;;16.92;52.09
23427;BME280;41148;45.420;10.952;2023-03-11T13:16:43;98931.00;;;17.03;49.67
23427;BME280;41148;45.420;10.952;2023-03-11T13:19:35;98926.72;;;17.11;48.86
23427;BME280;41148;45.420;10.952;2023-03-11T13:22:04;98931.69;;;17.16;48.98
23427;BME280;41148;45.420;10.952;2023-03-11T13:29:57;98924.16;;;17.10;48.67
23427;BME280;41148;45.420;10.952;2023-03-11T13:35:31;98917.16;;;17.07;49.27
23427;BME280;41148;45.420;10.952;2023-03-11T13:41:00;98918.97;;;17.50;48.08
23427;BME280;41148;45.420;10.952;2023-03-11T13:43:29;98906.06;;;17.33;47.68
23427;BME280;41148;45.420;10.952;2023-03-11T13:46:00;98925.41;;;17.27;48.42
23427;BME280;41148;45.420;10.952;2023-03-11T13:50:59;98915.41;;;17.29;48.15
23427;BME280;41148;45.420;10.952;2023-03-11T13:53:31;98926.41;;;17.26;48.34
23427;BME280;41148;45.420;10.952;2023-03-11T13:55:59;98924.56;;;17.26;48.08
23427;BME280;41148;45.420;10.952;2023-03-11T13:58:27;98924.19;;;17.31;48.14
23427;BME280;41148;45.420;10.952;2023-03-11T14:00:57;98921.59;;;17.08;48.07
23427;BME280;41148;45.420;10.952;2023-03-11T14:03:28;98915.00;;;17.01;47.73
23427;BME280;41148;45.420;10.952;2023-03-11T14:06:04;98928.38;;;17.24;48.66
23427;BME280;41148;45.420;10.952;2023-03-11T14:08:37;98918.63;;;17.43;48.24
23427;BME280;41148;45.420;10.952;2023-03-11T14:13:43;98911.88;;;17.17;48.23
23427;BME280;41148;45.420;10.952;2023-03-11T14:16:34;98911.78;;;17.07;48.04
23427;BME280;41148;45.420;10.952;2023-03-11T14:19:19;98912.72;;;17.17;48.32
23427;BME280;41148;45.420;10.952;2023-03-11T14:21:48;98923.72;;;17.26;49.89
23427;BME280;41148;45.420;10.952;2023-03-11T14:24:23;98932.13;;;17.32;49.88
23427;BME280;41148;45.420;10.952;2023-03-11T14:26:54;98930.44;;;17.31;49.82
23427;BME280;41148;45.420;10.952;2023-03-11T14:29:34;98926.63;;;17.34;49.15
23427;BME280;41148;45.420;10.952;2023-03-11T14:32:35;98931.16;;;17.33;48.68
23427;BME280;41148;45.420;10.952;2023-03-11T14:35:18;98929.66;;;17.40;48.91
23427;BME280;41148;45.420;10.952;2023-03-11T14:37:46;98930.38;;;17.42;48.09
23427;BME280;41148;45.420;10.952;2023-03-11T14:40:22;98944.31;;;17.48;48.52
23427;BME280;41148;45.420;10.952;2023-03-11T14:42:51;98939.25;;;17.54;48.90
23427;BME280;41148;45.420;10.952;2023-03-11T14:45:23;98936.75;;;17.41;50.05
23427;BME280;41148;45.420;10.952;2023-03-11T14:50:37;98952.91;;;17.41;51.50
23427;BME280;41148;45.420;10.952;2023-03-11T14:58:30;98938.97;;;17.36;52.45
23427;BME280;41148;45.420;10.952;2023-03-11T15:01:16;98932.81;;;17.45;52.19